createdAt,value
2023-08-18T00:00:06.773Z,46.70
2023-08-18T00:01:06.768Z,45.90
2023-08-18T00:02:06.741Z,48.20
2023-08-18T00:03:06.728Z,46.50
2023-08-18T00:04:06.726Z,48.90
2023-08-18T00:05:06.697Z,46.80
2023-08-18T00:06:06.725Z,45.80
2023-08-18T00:07:06.683Z,48.20
2023-08-18T00:08:06.674Z,45.10
2023-08-18T00:09:06.667Z,45.80
2023-08-18T00:10:07.013Z,47.90
2023-08-18T00:11:06.659Z,48.00
2023-08-18T00:12:06.652Z,49.40
2023-08-18T00:13:06.613Z,48.10
2023-08-18T00:14:06.646Z,45.70
2023-08-18T00:15:06.596Z,45.80
2023-08-18T00:16:06.642Z,45.60
2023-08-18T00:17:06.580Z,47.10
2023-08-18T00:18:06.608Z,47.80
2023-08-18T00:19:06.552Z,47.60
2023-08-18T00:20:06.563Z,48.60
2023-08-18T00:21:06.537Z,46.80
2023-08-18T00:22:06.532Z,46.10
2023-08-18T00:23:06.515Z,48.00
2023-08-18T00:24:06.517Z,46.80
2023-08-18T00:25:06.483Z,46.50
2023-08-18T00:26:06.489Z,45.70
2023-08-18T00:27:06.485Z,43.50
2023-08-18T00:28:06.502Z,46.80
2023-08-18T00:29:06.466Z,49.50
2023-08-18T00:30:06.463Z,48.10
2023-08-18T00:31:06.449Z,48.50
2023-08-18T00:32:06.427Z,45.80
2023-08-18T00:33:06.429Z,46.50
2023-08-18T00:34:06.376Z,47.20
2023-08-18T00:35:06.396Z,46.00
2023-08-18T00:36:06.408Z,46.70
2023-08-18T00:37:06.378Z,47.30
2023-08-18T00:38:06.395Z,46.90
2023-08-18T00:39:06.339Z,47.80
2023-08-18T00:40:06.309Z,45.40
2023-08-18T00:41:06.351Z,48.50
2023-08-18T00:42:06.336Z,46.10
2023-08-18T00:43:06.323Z,47.90
2023-08-18T00:44:06.286Z,47.70
2023-08-18T00:45:06.307Z,46.90
2023-08-18T00:46:06.346Z,47.90
2023-08-18T00:47:06.304Z,47.90
2023-08-18T00:48:06.316Z,47.10
2023-08-18T00:49:06.259Z,45.30
2023-08-18T00:50:06.275Z,46.60
2023-08-18T00:51:06.200Z,46.80
2023-08-18T00:52:06.254Z,47.50
2023-08-18T00:53:06.220Z,48.20
2023-08-18T00:54:06.171Z,44.80
2023-08-18T00:55:06.193Z,46.00
2023-08-18T00:56:06.167Z,45.60
2023-08-18T00:57:06.162Z,47.00
2023-08-18T00:58:06.146Z,46.80
2023-08-18T00:59:06.147Z,46.00
2023-08-18T01:00:06.127Z,48.40
2023-08-18T01:01:06.150Z,47.80
2023-08-18T01:02:06.086Z,44.90
2023-08-18T01:03:06.199Z,48.00
2023-08-18T01:04:06.110Z,46.60
2023-08-18T01:05:06.071Z,47.50
2023-08-18T01:06:06.060Z,50.20
2023-08-18T01:07:06.049Z,47.40
2023-08-18T01:08:06.050Z,47.20
2023-08-18T01:09:06.035Z,47.60
2023-08-18T01:10:06.001Z,51.60
2023-08-18T01:11:06.024Z,47.80
2023-08-18T01:12:05.989Z,47.00
2023-08-18T01:13:05.975Z,47.10
2023-08-18T01:14:05.987Z,46.60
2023-08-18T01:15:05.975Z,46.80
2023-08-18T01:16:05.963Z,48.20
2023-08-18T01:17:05.943Z,48.10
2023-08-18T01:18:05.986Z,50.90
2023-08-18T01:19:05.900Z,49.80
2023-08-18T01:20:05.903Z,46.10
2023-08-18T01:21:05.895Z,48.60
2023-08-18T01:22:05.885Z,48.20
2023-08-18T01:23:05.857Z,48.80
2023-08-18T01:24:05.849Z,48.60
2023-08-18T01:25:05.840Z,48.00
2023-08-18T01:26:05.829Z,48.60
2023-08-18T01:27:05.845Z,47.90
2023-08-18T01:28:05.807Z,49.20
2023-08-18T01:29:05.833Z,49.70
2023-08-18T01:30:05.819Z,48.90
2023-08-18T01:31:05.876Z,48.20
2023-08-18T01:32:05.757Z,49.00
2023-08-18T01:33:05.817Z,49.40
2023-08-18T01:34:05.782Z,50.10
2023-08-18T01:35:05.741Z,48.60
2023-08-18T01:36:05.754Z,50.30
2023-08-18T01:37:05.695Z,49.90
2023-08-18T01:38:05.719Z,49.90
2023-08-18T01:39:05.706Z,49.70
2023-08-18T01:40:05.699Z,48.50
2023-08-18T01:41:05.685Z,49.30
2023-08-18T01:42:05.675Z,49.60
2023-08-18T01:43:05.632Z,51.00
2023-08-18T01:44:05.652Z,51.90
2023-08-18T01:45:05.639Z,48.40
2023-08-18T01:46:05.697Z,51.00
2023-08-18T01:47:05.611Z,53.30
2023-08-18T01:48:05.634Z,50.20
2023-08-18T01:49:05.622Z,50.90
2023-08-18T01:50:05.574Z,51.40
2023-08-18T01:51:05.576Z,49.40
2023-08-18T01:52:05.578Z,51.40
2023-08-18T01:53:05.540Z,49.30
2023-08-18T01:54:05.548Z,50.20
2023-08-18T01:55:05.523Z,49.50
2023-08-18T01:56:05.533Z,51.10
2023-08-18T01:57:05.529Z,49.30
2023-08-18T01:58:05.599Z,49.50
2023-08-18T01:59:05.468Z,51.50
2023-08-18T02:00:05.495Z,49.00
2023-08-18T02:01:05.466Z,51.80
2023-08-18T02:02:05.479Z,47.30
2023-08-18T02:03:05.519Z,49.10
2023-08-18T02:04:05.442Z,49.30
2023-08-18T02:05:05.453Z,49.70
2023-08-18T02:06:05.429Z,50.10
2023-08-18T02:07:05.401Z,51.30
2023-08-18T02:08:05.393Z,50.40
2023-08-18T02:09:05.383Z,51.00
2023-08-18T02:10:05.354Z,48.90
2023-08-18T02:11:05.479Z,49.60
2023-08-18T02:12:05.366Z,48.60
2023-08-18T02:13:05.349Z,49.70
2023-08-18T02:14:05.321Z,50.30
2023-08-18T02:15:05.330Z,50.70
2023-08-18T02:16:05.338Z,52.00
2023-08-18T02:17:05.347Z,48.70
2023-08-18T02:18:05.366Z,49.30
2023-08-18T02:19:05.285Z,48.20
2023-08-18T02:20:05.278Z,49.80
2023-08-18T02:21:05.312Z,52.50
2023-08-18T02:22:05.236Z,50.30
2023-08-18T02:23:05.224Z,51.90
2023-08-18T02:24:05.207Z,51.70
2023-08-18T02:25:05.231Z,50.50
2023-08-18T02:26:05.214Z,51.80
2023-08-18T02:27:05.193Z,50.40
2023-08-18T02:28:05.189Z,48.60
2023-08-18T02:29:05.147Z,50.40
2023-08-18T02:30:05.137Z,50.10
2023-08-18T02:31:05.156Z,49.60
2023-08-18T02:32:05.138Z,49.40
2023-08-18T02:33:05.138Z,50.60
2023-08-18T02:34:05.099Z,47.90
2023-08-18T02:35:05.091Z,49.70
2023-08-18T02:36:05.074Z,52.00
2023-08-18T02:37:05.093Z,49.60
2023-08-18T02:38:05.073Z,48.60
2023-08-18T02:39:05.053Z,51.40
2023-08-18T02:40:05.039Z,47.10
2023-08-18T02:41:05.037Z,49.90
2023-08-18T02:42:05.008Z,52.30
2023-08-18T02:43:05.004Z,50.50
2023-08-18T02:44:04.996Z,51.80
2023-08-18T02:45:05.004Z,48.70
2023-08-18T02:46:05.001Z,49.30
2023-08-18T02:47:04.982Z,50.40
2023-08-18T02:48:05.016Z,50.00
2023-08-18T02:49:04.950Z,52.20
2023-08-18T02:50:04.981Z,47.30
2023-08-18T02:51:04.938Z,51.40
2023-08-18T02:52:04.918Z,49.00
2023-08-18T02:53:04.903Z,50.00
2023-08-18T02:54:04.888Z,51.20
2023-08-18T02:55:04.877Z,51.20
2023-08-18T02:56:04.873Z,53.80
2023-08-18T02:57:04.874Z,51.90
2023-08-18T02:58:04.853Z,50.00
2023-08-18T02:59:04.850Z,49.10
2023-08-18T03:00:04.809Z,51.90
2023-08-18T03:01:04.922Z,50.80
2023-08-18T03:02:04.794Z,49.10
2023-08-18T03:03:04.872Z,50.10
2023-08-18T03:04:04.831Z,48.00
2023-08-18T03:05:04.821Z,54.80
2023-08-18T03:06:04.751Z,54.70
2023-08-18T03:07:04.756Z,52.20
2023-08-18T03:08:04.750Z,53.30
2023-08-18T03:09:04.755Z,50.30
2023-08-18T03:10:04.717Z,50.30
2023-08-18T03:11:04.722Z,49.00
2023-08-18T03:12:04.691Z,51.80
2023-08-18T03:13:04.808Z,53.60
2023-08-18T03:14:04.701Z,50.30
2023-08-18T03:15:04.662Z,52.10
2023-08-18T03:16:04.685Z,52.80
2023-08-18T03:17:04.637Z,52.00
2023-08-18T03:18:04.706Z,52.90
2023-08-18T03:19:04.616Z,53.60
2023-08-18T03:20:04.620Z,56.90
2023-08-18T03:21:04.911Z,58.80
2023-08-18T03:22:04.581Z,58.20
2023-08-18T03:23:04.580Z,59.00
2023-08-18T03:24:04.571Z,59.80
2023-08-18T03:25:04.546Z,58.80
2023-08-18T03:26:04.602Z,57.50
2023-08-18T03:27:04.543Z,58.50
2023-08-18T03:28:04.514Z,62.90
2023-08-18T03:29:04.516Z,57.80
2023-08-18T03:30:04.530Z,58.70
2023-08-18T03:31:05.539Z,59.80
2023-08-18T03:32:04.480Z,60.70
2023-08-18T03:33:04.625Z,60.30
2023-08-18T03:34:04.455Z,60.60
2023-08-18T03:35:04.448Z,57.90
2023-08-18T03:36:04.518Z,63.30
2023-08-18T03:37:04.469Z,62.10
2023-08-18T03:38:04.428Z,61.50
2023-08-18T03:39:04.396Z,65.80
2023-08-18T03:40:04.396Z,65.60
2023-08-18T03:41:04.390Z,65.80
2023-08-18T03:42:04.394Z,63.10
2023-08-18T03:43:04.365Z,64.10
2023-08-18T03:44:04.366Z,63.50
2023-08-18T03:45:04.341Z,63.50
2023-08-18T03:46:04.375Z,63.30
2023-08-18T03:47:04.358Z,64.30
2023-08-18T03:48:04.346Z,63.50
2023-08-18T03:49:04.289Z,57.80
2023-08-18T03:50:04.295Z,63.20
2023-08-18T03:51:04.329Z,58.80
2023-08-18T03:52:04.263Z,58.80
2023-08-18T03:53:04.254Z,59.30
2023-08-18T03:54:04.261Z,60.40
2023-08-18T03:55:04.235Z,62.00
2023-08-18T03:56:04.219Z,57.60
2023-08-18T03:57:04.208Z,59.30
2023-08-18T03:58:04.212Z,60.00
2023-08-18T03:59:04.209Z,60.90
2023-08-18T04:00:04.185Z,58.90
2023-08-18T04:01:04.183Z,58.30
2023-08-18T04:02:04.172Z,59.50
2023-08-18T04:03:04.230Z,57.90
2023-08-18T04:04:04.133Z,59.10
2023-08-18T04:05:04.172Z,60.40
2023-08-18T04:06:04.101Z,57.50
2023-08-18T04:07:04.161Z,60.40
2023-08-18T04:08:04.087Z,61.10
2023-08-18T04:09:04.096Z,59.60
2023-08-18T04:10:04.089Z,59.80
2023-08-18T04:11:04.082Z,58.60
2023-08-18T04:12:04.061Z,59.40
2023-08-18T04:13:04.024Z,59.60
2023-08-18T04:14:04.041Z,61.40
2023-08-18T04:15:04.052Z,62.80
2023-08-18T04:16:04.143Z,60.20
2023-08-18T04:17:04.032Z,61.50
2023-08-18T04:18:04.036Z,59.20
2023-08-18T04:19:03.976Z,60.00
2023-08-18T04:20:03.972Z,61.10
2023-08-18T04:21:04.262Z,62.90
2023-08-18T04:22:03.965Z,61.80
2023-08-18T04:23:03.916Z,58.20
2023-08-18T04:24:03.969Z,62.00
2023-08-18T04:25:03.912Z,59.80
2023-08-18T04:26:03.895Z,61.20
2023-08-18T04:27:03.875Z,63.00
2023-08-18T04:28:03.875Z,62.40
2023-08-18T04:29:03.849Z,60.10
2023-08-18T04:30:03.863Z,62.60
2023-08-18T04:31:03.890Z,60.80
2023-08-18T04:32:03.859Z,59.00
2023-08-18T04:33:03.879Z,59.90
2023-08-18T04:34:03.803Z,62.70
2023-08-18T04:35:03.880Z,57.80
2023-08-18T04:36:03.789Z,61.20
2023-08-18T04:37:03.767Z,59.40
2023-08-18T04:38:03.773Z,62.20
2023-08-18T04:39:03.761Z,60.30
2023-08-18T04:40:03.767Z,60.40
2023-08-18T04:41:03.751Z,58.20
2023-08-18T04:42:03.755Z,62.70
2023-08-18T04:43:03.715Z,59.30
2023-08-18T04:44:03.740Z,60.10
2023-08-18T04:45:03.712Z,60.20
2023-08-18T04:46:03.706Z,60.00
2023-08-18T04:47:03.668Z,58.80
2023-08-18T04:48:03.696Z,62.70
2023-08-18T04:49:03.632Z,59.60
2023-08-18T04:50:03.639Z,59.60
2023-08-18T04:51:03.619Z,56.00
2023-08-18T04:52:03.630Z,53.80
2023-08-18T04:53:03.601Z,57.00
2023-08-18T04:54:03.598Z,58.70
2023-08-18T04:55:03.588Z,58.40
2023-08-18T04:56:03.620Z,56.80
2023-08-18T04:57:03.549Z,59.50
2023-08-18T04:58:03.614Z,56.00
2023-08-18T04:59:03.605Z,61.10
2023-08-18T05:00:03.525Z,61.80
2023-08-18T05:01:03.525Z,60.40
2023-08-18T05:02:03.504Z,59.50
2023-08-18T05:03:03.521Z,59.80
2023-08-18T05:04:03.501Z,59.60
2023-08-18T05:05:03.460Z,62.90
2023-08-18T05:06:03.499Z,60.40
2023-08-18T05:07:05.129Z,59.80
2023-08-18T05:08:03.436Z,61.10
2023-08-18T05:09:03.450Z,60.30
2023-08-18T05:10:03.449Z,59.10
2023-08-18T05:11:03.414Z,61.70
2023-08-18T05:12:03.396Z,63.60
2023-08-18T05:13:03.377Z,59.40
2023-08-18T05:14:03.381Z,57.40
2023-08-18T05:15:03.381Z,59.60
2023-08-18T05:16:03.430Z,58.70
2023-08-18T05:17:03.345Z,60.10
2023-08-18T05:18:03.380Z,58.50
2023-08-18T05:19:03.319Z,60.10
2023-08-18T05:20:03.338Z,60.40
2023-08-18T05:21:03.324Z,60.50
2023-08-18T05:22:03.342Z,61.60
2023-08-18T05:23:03.329Z,60.10
2023-08-18T05:24:03.310Z,60.60
2023-08-18T05:25:03.276Z,59.00
2023-08-18T05:26:03.257Z,60.90
2023-08-18T05:27:03.229Z,65.30
2023-08-18T05:28:03.301Z,58.30
2023-08-18T05:29:03.208Z,59.10
2023-08-18T05:30:03.254Z,58.10
2023-08-18T05:31:03.483Z,55.00
2023-08-18T05:32:03.184Z,54.50
2023-08-18T05:33:03.221Z,56.80
2023-08-18T05:34:03.223Z,57.50
2023-08-18T05:35:03.162Z,56.70
2023-08-18T05:36:03.149Z,56.00
2023-08-18T05:37:03.136Z,57.00
2023-08-18T05:38:03.143Z,56.40
2023-08-18T05:39:03.118Z,56.90
2023-08-18T05:40:03.090Z,56.20
2023-08-18T05:41:03.191Z,54.30
2023-08-18T05:42:03.098Z,55.00
2023-08-18T05:43:03.062Z,57.70
2023-08-18T05:44:03.043Z,55.50
2023-08-18T05:45:03.062Z,55.60
2023-08-18T05:46:03.063Z,52.50
2023-08-18T05:47:03.093Z,54.10
2023-08-18T05:48:03.010Z,53.80
2023-08-18T05:49:03.005Z,52.80
2023-08-18T05:50:02.984Z,51.70
2023-08-18T05:51:02.989Z,53.00
2023-08-18T05:52:02.964Z,53.30
2023-08-18T05:53:02.972Z,53.70
2023-08-18T05:54:02.959Z,49.40
2023-08-18T05:55:02.935Z,52.50
2023-08-18T05:56:02.989Z,51.90
2023-08-18T05:57:02.932Z,51.20
2023-08-18T05:58:02.915Z,52.60
2023-08-18T05:59:02.998Z,50.80
2023-08-18T06:00:02.918Z,49.70
2023-08-18T06:01:02.871Z,52.50
2023-08-18T06:02:02.880Z,50.80
2023-08-18T06:03:02.873Z,50.90
2023-08-18T06:04:02.894Z,50.30
2023-08-18T06:05:02.845Z,52.00
2023-08-18T06:06:06.044Z,52.30
2023-08-18T06:07:02.804Z,51.60
2023-08-18T06:08:02.784Z,50.60
2023-08-18T06:09:02.771Z,51.20
2023-08-18T06:10:02.817Z,54.20
2023-08-18T06:11:03.458Z,48.90
2023-08-18T06:12:02.741Z,51.20
2023-08-18T06:13:02.730Z,51.50
2023-08-18T06:14:02.788Z,49.60
2023-08-18T06:15:02.719Z,50.50
2023-08-18T06:16:03.367Z,50.90
2023-08-18T06:17:02.693Z,52.10
2023-08-18T06:18:02.730Z,50.90
2023-08-18T06:19:02.686Z,49.50
2023-08-18T06:20:02.706Z,49.90
2023-08-18T06:21:02.652Z,50.70
2023-08-18T06:22:02.630Z,49.10
2023-08-18T06:23:02.662Z,47.40
2023-08-18T06:24:02.612Z,47.50
2023-08-18T06:25:02.638Z,48.20
2023-08-18T06:26:02.612Z,49.50
2023-08-18T06:27:02.590Z,48.30
2023-08-18T06:28:02.565Z,50.80
2023-08-18T06:29:02.562Z,48.10
2023-08-18T06:30:02.545Z,48.40
2023-08-18T06:31:02.541Z,48.10
2023-08-18T06:32:03.204Z,48.90
2023-08-18T06:33:02.603Z,50.70
2023-08-18T06:34:02.506Z,48.10
2023-08-18T06:35:02.526Z,47.00
2023-08-18T06:36:02.492Z,49.00
2023-08-18T06:37:02.519Z,50.10
2023-08-18T06:38:02.468Z,49.90
2023-08-18T06:39:02.451Z,47.60
2023-08-18T06:40:02.480Z,46.90
2023-08-18T06:41:02.453Z,48.50
2023-08-18T06:42:02.416Z,47.50
2023-08-18T06:43:02.454Z,47.80
2023-08-18T06:44:02.406Z,46.50
2023-08-18T06:45:02.437Z,46.90
2023-08-18T06:46:02.443Z,47.40
2023-08-18T06:47:02.438Z,49.00
2023-08-18T06:48:02.394Z,47.80
2023-08-18T06:49:02.352Z,48.50
2023-08-18T06:50:02.353Z,47.60
2023-08-18T06:51:02.322Z,49.20
2023-08-18T06:52:02.301Z,55.10
2023-08-18T06:53:02.317Z,51.90
2023-08-18T06:54:02.283Z,52.50
2023-08-18T06:55:02.283Z,51.30
2023-08-18T06:56:03.250Z,50.80
2023-08-18T06:57:02.288Z,51.50
2023-08-18T06:58:02.240Z,49.40
2023-08-18T06:59:02.244Z,52.10
2023-08-18T07:00:02.249Z,53.10
2023-08-18T07:01:02.237Z,50.10
2023-08-18T07:02:02.208Z,51.50
2023-08-18T07:03:02.246Z,53.10
2023-08-18T07:04:02.171Z,53.90
2023-08-18T07:05:02.183Z,55.00
2023-08-18T07:06:02.161Z,54.60
2023-08-18T07:07:02.174Z,55.30
2023-08-18T07:08:02.140Z,53.90
2023-08-18T07:09:02.164Z,53.60
2023-08-18T07:10:02.112Z,52.00
2023-08-18T07:11:02.114Z,55.60
2023-08-18T07:12:02.112Z,54.00
2023-08-18T07:13:02.103Z,51.10
2023-08-18T07:14:02.068Z,53.10
2023-08-18T07:15:02.084Z,53.60
2023-08-18T07:16:02.119Z,54.80
2023-08-18T07:17:02.050Z,52.70
2023-08-18T07:18:02.057Z,55.70
2023-08-18T07:19:02.028Z,57.60
2023-08-18T07:20:02.027Z,55.70
2023-08-18T07:21:02.065Z,55.60
2023-08-18T07:22:02.008Z,55.00
2023-08-18T07:23:01.989Z,52.90
2023-08-18T07:24:01.989Z,54.00
2023-08-18T07:25:01.965Z,54.90
2023-08-18T07:26:01.960Z,54.00
2023-08-18T07:27:01.953Z,53.80
2023-08-18T07:28:01.937Z,56.70
2023-08-18T07:29:01.923Z,55.60
2023-08-18T07:30:01.920Z,55.90
2023-08-18T07:31:01.926Z,54.80
2023-08-18T07:32:01.889Z,54.60
2023-08-18T07:33:01.937Z,56.90
2023-08-18T07:34:01.876Z,54.60
2023-08-18T07:35:01.879Z,55.10
2023-08-18T07:36:02.064Z,54.80
2023-08-18T07:37:01.859Z,57.90
2023-08-18T07:38:01.929Z,52.20
2023-08-18T07:39:01.805Z,55.50
2023-08-18T07:40:01.811Z,58.10
2023-08-18T07:41:01.802Z,57.60
2023-08-18T07:42:01.800Z,55.40
2023-08-18T07:43:01.791Z,56.90
2023-08-18T07:44:01.757Z,58.40
2023-08-18T07:45:01.780Z,57.10
2023-08-18T07:46:01.755Z,57.80
2023-08-18T07:47:01.734Z,56.10
2023-08-18T07:48:01.784Z,57.30
2023-08-18T07:49:01.700Z,57.70
2023-08-18T07:50:01.706Z,56.20
2023-08-18T07:51:01.726Z,56.00
2023-08-18T07:52:01.738Z,55.60
2023-08-18T07:53:01.824Z,57.80
2023-08-18T07:54:01.682Z,55.50
2023-08-18T07:55:01.694Z,58.10
2023-08-18T07:56:01.646Z,56.60
2023-08-18T07:57:02.940Z,57.10
2023-08-18T07:58:01.631Z,55.60
2023-08-18T07:59:01.628Z,56.10
2023-08-18T08:00:01.688Z,57.00
2023-08-18T08:01:01.611Z,56.30
2023-08-18T08:02:02.121Z,53.90
2023-08-18T08:03:01.752Z,59.00
2023-08-18T08:04:01.647Z,54.60
2023-08-18T08:05:01.555Z,54.40
2023-08-18T08:06:02.317Z,52.80
2023-08-18T08:07:01.875Z,56.10
2023-08-18T08:08:01.536Z,56.10
2023-08-18T08:09:01.497Z,52.70
2023-08-18T08:10:01.491Z,57.30
2023-08-18T08:11:01.462Z,56.10
2023-08-18T08:12:01.476Z,55.60
2023-08-18T08:13:01.444Z,54.80
2023-08-18T08:14:01.456Z,55.90
2023-08-18T08:15:01.449Z,55.10
2023-08-18T08:16:01.455Z,58.40
2023-08-18T08:17:01.413Z,55.70
2023-08-18T08:18:01.431Z,57.20
2023-08-18T08:19:01.378Z,56.50
2023-08-18T08:20:01.393Z,57.70
2023-08-18T08:21:01.362Z,57.50
2023-08-18T08:22:01.376Z,55.90
2023-08-18T08:23:01.383Z,54.40
2023-08-18T08:24:01.328Z,57.60
2023-08-18T08:25:01.414Z,56.90
2023-08-18T08:26:01.335Z,55.80
2023-08-18T08:27:01.313Z,56.10
2023-08-18T08:28:01.283Z,56.20
2023-08-18T08:29:01.281Z,53.70
2023-08-18T08:30:02.897Z,56.50
2023-08-18T08:31:05.840Z,57.70
2023-08-18T08:32:01.234Z,58.50
2023-08-18T08:33:01.435Z,56.50
2023-08-18T08:34:01.234Z,56.80
2023-08-18T08:35:01.233Z,59.10
2023-08-18T08:36:01.361Z,56.70
2023-08-18T08:37:01.228Z,54.30
2023-08-18T08:38:01.209Z,56.90
2023-08-18T08:39:01.158Z,57.60
2023-08-18T08:40:01.144Z,54.90
2023-08-18T08:41:01.265Z,57.40
2023-08-18T08:42:01.142Z,55.90
2023-08-18T08:44:01.130Z,56.00
2023-08-18T08:45:01.091Z,56.10
2023-08-18T08:46:01.561Z,52.30
2023-08-18T08:47:01.684Z,53.10
2023-08-18T08:48:01.095Z,57.20
2023-08-18T08:49:01.072Z,57.30
2023-08-18T08:50:01.086Z,55.10
2023-08-18T08:51:01.033Z,56.60
2023-08-18T08:52:01.127Z,59.20
2023-08-18T08:53:01.072Z,54.70
2023-08-18T08:54:03.742Z,57.90
2023-08-18T08:56:02.002Z,57.90
2023-08-18T08:57:01.004Z,54.10
2023-08-18T08:58:00.961Z,56.40
2023-08-18T08:59:00.946Z,54.20
2023-08-18T09:00:00.948Z,55.20
2023-08-18T09:01:00.933Z,54.50
2023-08-18T09:02:00.975Z,55.70
2023-08-18T09:03:01.024Z,57.00
2023-08-18T09:04:01.006Z,55.20
2023-08-18T09:05:00.888Z,56.30
2023-08-18T09:06:00.868Z,55.30
2023-08-18T09:07:00.916Z,54.60
2023-08-18T09:08:00.882Z,58.30
2023-08-18T09:09:02.950Z,56.80
2023-08-18T09:10:00.834Z,54.40
2023-08-18T09:11:00.970Z,56.70
2023-08-18T09:12:00.838Z,58.30
2023-08-18T09:13:00.828Z,56.90
2023-08-18T09:14:00.794Z,56.40
2023-08-18T09:15:00.824Z,56.80
2023-08-18T09:16:00.771Z,55.70
2023-08-18T09:17:00.785Z,56.20
2023-08-18T09:18:00.822Z,56.20
2023-08-18T09:19:00.841Z,58.70
2023-08-18T09:20:01.016Z,57.40
2023-08-18T09:21:00.711Z,58.00
2023-08-18T09:22:00.741Z,55.40
2023-08-18T09:23:00.696Z,55.80
2023-08-18T09:24:04.724Z,54.20
2023-08-18T09:25:00.675Z,51.10
2023-08-18T09:26:00.672Z,53.20
2023-08-18T09:27:00.743Z,53.80
2023-08-18T09:28:03.599Z,52.10
2023-08-18T09:29:01.628Z,53.20
2023-08-18T09:30:00.667Z,53.60
2023-08-18T09:31:00.672Z,54.60
2023-08-18T09:32:00.604Z,57.40
2023-08-18T09:33:00.609Z,54.80
2023-08-18T09:34:00.583Z,52.00
2023-08-18T09:35:00.593Z,56.40
2023-08-18T09:36:00.597Z,57.20
2023-08-18T09:37:00.562Z,58.10
2023-08-18T09:38:00.536Z,55.10
2023-08-18T09:39:00.541Z,58.20
2023-08-18T09:40:00.537Z,60.10
2023-08-18T09:41:00.533Z,54.20
2023-08-18T09:42:00.533Z,53.70
2023-08-18T09:43:05.190Z,55.10
2023-08-18T09:44:01.493Z,55.70
2023-08-18T09:45:00.489Z,56.90
2023-08-18T09:46:00.483Z,56.40
2023-08-18T09:47:00.468Z,58.20
2023-08-18T09:48:00.468Z,58.20
2023-08-18T09:49:00.616Z,57.70
2023-08-18T09:50:00.437Z,58.10
2023-08-18T09:51:00.418Z,56.80
2023-08-18T09:52:00.402Z,54.00
2023-08-18T09:53:00.419Z,57.50
2023-08-18T09:54:00.480Z,54.20
2023-08-18T09:55:00.371Z,54.00
2023-08-18T09:56:00.392Z,56.50
2023-08-18T09:57:00.446Z,55.50
2023-08-18T09:58:00.458Z,59.20
2023-08-18T09:59:00.323Z,58.00
2023-08-18T10:00:00.429Z,56.90
2023-08-18T10:01:00.287Z,56.10
2023-08-18T10:02:00.374Z,56.30
2023-08-18T10:03:00.370Z,56.00
2023-08-18T10:04:00.368Z,55.70
2023-08-18T10:05:00.913Z,55.70
2023-08-18T10:06:00.317Z,53.40
2023-08-18T10:07:00.235Z,55.30
2023-08-18T10:08:00.298Z,51.50
2023-08-18T10:09:00.369Z,51.80
2023-08-18T10:10:00.399Z,54.40
2023-08-18T10:11:00.226Z,50.90
2023-08-18T10:12:00.181Z,53.20
2023-08-18T10:13:00.162Z,50.80
2023-08-18T10:14:00.157Z,49.80
2023-08-18T10:15:00.301Z,48.10
2023-08-18T10:16:00.191Z,46.50
2023-08-18T10:17:00.153Z,48.60
2023-08-18T10:18:00.205Z,46.60
2023-08-18T10:19:00.685Z,49.10
2023-08-18T10:20:00.152Z,50.30
2023-08-18T10:21:00.099Z,49.20
2023-08-18T10:22:00.073Z,51.00
2023-08-18T10:23:00.078Z,51.00
2023-08-18T10:24:00.026Z,52.20
2023-08-18T10:25:00.051Z,50.50
2023-08-18T10:26:00.013Z,55.00
2023-08-18T10:26:59.997Z,52.70
2023-08-18T10:28:00.039Z,55.60
2023-08-18T10:29:00.077Z,52.80
2023-08-18T10:30:00.308Z,53.70
2023-08-18T10:30:59.960Z,59.30
2023-08-18T10:31:59.986Z,61.60
2023-08-18T10:32:59.959Z,59.50
2023-08-18T10:33:59.941Z,62.00
2023-08-18T10:34:59.949Z,60.80
2023-08-18T10:35:59.914Z,60.90
2023-08-18T10:37:00.395Z,60.00
2023-08-18T10:38:00.386Z,64.50
2023-08-18T10:39:00.037Z,62.40
2023-08-18T10:39:59.854Z,63.50
2023-08-18T10:40:59.860Z,64.00
2023-08-18T10:41:59.848Z,63.80
2023-08-18T10:42:59.817Z,64.40
2023-08-18T10:43:59.830Z,70.70
2023-08-18T10:44:59.815Z,67.00
2023-08-18T10:45:59.825Z,68.40
2023-08-18T10:46:59.788Z,68.20
2023-08-18T10:47:59.876Z,66.60
2023-08-18T10:48:59.773Z,69.30
2023-08-18T10:49:59.770Z,64.00
2023-08-18T10:50:59.739Z,68.40
2023-08-18T10:51:59.745Z,66.00
2023-08-18T10:52:59.718Z,66.80
2023-08-18T10:53:59.717Z,68.70
2023-08-18T10:54:59.715Z,66.60
2023-08-18T10:55:59.703Z,70.80
2023-08-18T10:56:59.682Z,68.40
2023-08-18T10:57:59.705Z,68.40
2023-08-18T10:58:59.648Z,68.40
2023-08-18T10:59:59.692Z,67.90
2023-08-18T11:00:59.740Z,67.70
2023-08-18T11:02:00.778Z,69.00
2023-08-18T11:02:59.635Z,68.50
2023-08-18T11:03:59.636Z,68.80
2023-08-18T11:04:59.600Z,67.20
2023-08-18T11:05:59.606Z,68.00
2023-08-18T11:06:59.601Z,70.20
2023-08-18T11:07:59.576Z,67.10
2023-08-18T11:08:59.537Z,68.90
2023-08-18T11:09:59.528Z,65.70
2023-08-18T11:10:59.529Z,68.20
2023-08-18T11:11:59.540Z,68.10
2023-08-18T11:12:59.588Z,72.70
2023-08-18T11:13:59.572Z,67.10
2023-08-18T11:14:59.502Z,67.80
2023-08-18T11:15:59.501Z,68.70
2023-08-18T11:16:59.476Z,66.30
2023-08-18T11:17:59.515Z,64.30
2023-08-18T11:18:59.619Z,61.70
2023-08-18T11:19:59.449Z,66.40
2023-08-18T11:20:59.430Z,66.20
2023-08-18T11:21:59.404Z,68.20
2023-08-18T11:22:59.409Z,67.70
2023-08-18T11:23:59.456Z,69.50
2023-08-18T11:24:59.395Z,68.80
2023-08-18T11:25:59.366Z,71.00
2023-08-18T11:26:59.359Z,70.30
2023-08-18T11:27:59.342Z,70.80
2023-08-18T11:28:59.337Z,69.00
2023-08-18T11:29:59.325Z,70.40
2023-08-18T11:30:59.340Z,65.80
2023-08-18T11:31:59.300Z,63.50
2023-08-18T11:32:59.313Z,63.20
2023-08-18T11:33:59.293Z,66.80
2023-08-18T11:34:59.276Z,68.00
2023-08-18T11:35:59.302Z,70.10
2023-08-18T11:36:59.266Z,68.70
2023-08-18T11:37:59.223Z,69.40
2023-08-18T11:38:59.232Z,70.30
2023-08-18T11:39:59.210Z,68.00
2023-08-18T11:40:59.228Z,70.00
2023-08-18T11:41:59.229Z,68.40
2023-08-18T11:42:59.178Z,68.20
2023-08-18T11:43:59.171Z,69.40
2023-08-18T11:44:59.146Z,67.60
2023-08-18T11:45:59.139Z,67.20
2023-08-18T11:46:59.126Z,66.50
2023-08-18T11:47:59.193Z,66.80
2023-08-18T11:48:59.126Z,65.60
2023-08-18T11:49:59.110Z,64.80
2023-08-18T11:50:59.082Z,67.80
2023-08-18T11:51:59.101Z,67.10
2023-08-18T11:52:59.161Z,66.10
2023-08-18T11:53:59.049Z,65.80
2023-08-18T11:54:59.045Z,65.60
2023-08-18T11:55:59.044Z,66.90
2023-08-18T11:56:59.044Z,68.30
2023-08-18T11:57:59.012Z,67.70
2023-08-18T11:58:59.076Z,67.30
2023-08-18T11:59:59.003Z,69.10
2023-08-18T12:00:59.048Z,68.30
2023-08-18T12:01:58.986Z,64.20
2023-08-18T12:02:59.027Z,68.70
2023-08-18T12:03:59.035Z,64.40
2023-08-18T12:04:59.190Z,65.80
2023-08-18T12:05:58.984Z,66.50
2023-08-18T12:06:58.905Z,72.30
2023-08-18T12:07:58.906Z,65.60
2023-08-18T12:08:58.881Z,68.20
2023-08-18T12:09:58.916Z,68.10
2023-08-18T12:10:59.011Z,68.00
2023-08-18T12:11:58.891Z,70.40
2023-08-18T12:12:58.856Z,70.80
2023-08-18T12:13:59.026Z,67.20
2023-08-18T12:14:58.919Z,68.40
2023-08-18T12:15:58.998Z,69.10
2023-08-18T12:16:58.869Z,65.00
2023-08-18T12:17:59.052Z,67.40
2023-08-18T12:18:58.822Z,68.00
2023-08-18T12:19:58.764Z,64.40
2023-08-18T12:20:58.748Z,65.50
2023-08-18T12:21:59.000Z,68.50
2023-08-18T12:22:58.721Z,67.60
2023-08-18T12:23:58.729Z,68.10
2023-08-18T12:24:58.798Z,70.00
2023-08-18T12:25:58.696Z,72.00
2023-08-18T12:26:58.906Z,68.60
2023-08-18T12:27:58.715Z,67.20
2023-08-18T12:28:58.669Z,65.70
2023-08-18T12:29:58.684Z,69.50
2023-08-18T12:30:58.658Z,68.60
2023-08-18T12:31:58.698Z,67.30
2023-08-18T12:32:58.668Z,66.00
2023-08-18T12:33:58.616Z,68.00
2023-08-18T12:34:58.599Z,64.00
2023-08-18T12:35:58.624Z,66.30
2023-08-18T12:36:59.444Z,66.30
2023-08-18T12:37:58.577Z,65.70
2023-08-18T12:38:58.565Z,66.20
2023-08-18T12:39:58.553Z,64.20
2023-08-18T12:40:58.540Z,65.90
2023-08-18T12:41:58.539Z,68.90
2023-08-18T12:42:58.505Z,66.90
2023-08-18T12:43:58.533Z,68.80
2023-08-18T12:44:58.487Z,65.90
2023-08-18T12:45:58.575Z,67.00
2023-08-18T12:46:58.482Z,69.80
2023-08-18T12:47:58.509Z,67.50
2023-08-18T12:48:58.480Z,66.30
2023-08-18T12:49:58.448Z,64.40
2023-08-18T12:50:58.430Z,66.00
2023-08-18T12:51:58.744Z,65.00
2023-08-18T12:52:58.406Z,63.70
2023-08-18T12:53:58.399Z,65.10